Flight Track Log - Related Links

Times and Time Zones

All times are in EDT time to prevent confusion due to time zone crossing. See the SWA1969 flight status page for this flight to view local times or setup timezone preferences in your user account.


Time Position Orientation Groundspeed Altitude Reporting Facility
EDT Latitude Longitude Course Direction KTS MPH feet Rate Location/Type
Mon 09:11:49 AM 32.8333 -96.8333 132° Southeast 158 182 1,400  Level Dallas / Fort Worth TRACON
Mon 09:13:07 AM 32.7833 -96.7667 132° Southeast 205 236 4,500 2,409 Climbing Dallas / Fort Worth TRACON
Mon 09:14:01 AM 32.7500 -96.7167 128° Southeast 239 275 6,700 2,850 Climbing Dallas / Fort Worth TRACON
Mon 09:15:07 AM 32.8333 -96.6833 19° North 286 329 10,200 1,780 Climbing Dallas / Fort Worth TRACON
Mon 09:17:30 AM 33.0319 -96.7197 351° North 325 374 12,900 1,862 Climbing Fort Worth Center
Mon 09:18:30 AM 33.1447 -96.7436 350° North 348 400 16,500 2,650 Climbing Fort Worth Center
Mon 09:19:30 AM 33.2367 -96.7603 351° North 364 419 18,200 2,350 Climbing Fort Worth Center
Mon 09:20:30 AM 33.3558 -96.7867 350° North 379 436 21,200 2,650 Climbing Fort Worth Center
Mon 09:21:30 AM 33.4581 -96.7958 356° North 397 457 23,500 2,300 Climbing Fort Worth Center
Mon 09:22:30 AM 33.5811 -96.7628 13° North 407 468 25,800 2,050 Climbing Fort Worth Center
Mon 09:23:30 AM 33.6853 -96.7344 13° North 417 480 27,600 1,850 Climbing Fort Worth Center
Mon 09:24:30 AM 33.8186 -96.6958 14° North 427 491 29,500 3,800 Climbing Fort Worth Center
Mon 09:26:30 AM 34.0603 -96.6314 12° North 437 503 39,000 1,967 Climbing Fort Worth Center
Mon 09:27:30 AM 34.1792 -96.5975 13° North 443 510 35,400 -1,050 Descending Fort Worth Center
Mon 09:28:30 AM 34.2956 -96.5639 13° North 437 503 36,900 1,350 Climbing Fort Worth Center
Mon 09:29:30 AM 34.4122 -96.5325 13° North 427 491 38,100 1,050 Climbing Fort Worth Center
Mon 09:30:30 AM 34.5247 -96.4986 14° North 427 491 39,000 450 Climbing Fort Worth Center
Mon 09:31:30 AM 34.6392 -96.4669 13° North 417 480 39,000  Level Fort Worth Center
Mon 09:32:30 AM 34.7517 -96.4356 13° North 412 474 39,000  Level Fort Worth Center
Mon 09:33:30 AM 34.8683 -96.4011 14° North 412 474 39,000  Level Fort Worth Center
Mon 09:34:30 AM 34.9828 -96.3694 13° North 412 474 39,000  Level Fort Worth Center
Mon 09:35:30 AM 35.0972 -96.3375 13° North 412 474 39,000  Level Fort Worth Center
Mon 09:36:30 AM 35.2136 -96.3031 14° North 412 474 39,000  Level Fort Worth Center
Mon 09:37:30 AM 35.3303 -96.2711 13° North 412 474 39,000  Level Fort Worth Center
Mon 09:39:14 AM 35.5114 -96.2175 14° North 425 489 39,000  Level Kansas City Center
Mon 09:40:16 AM 35.6494 -96.1772 13° North 426 490 39,000  Level Kansas City Center
Mon 09:41:18 AM 35.7650 -96.1436 13° North 428 493 39,000  Level Kansas City Center
Mon 09:42:20 AM 35.8708 -96.1133 13° North 428 493 39,000  Level Kansas City Center
Mon 09:43:22 AM 35.9889 -96.0800 13° North 430 495 39,000  Level Kansas City Center
Mon 09:44:23 AM 36.1319 -96.0383 13° North 436 502 39,000  Level Kansas City Center
Mon 09:45:25 AM 36.2519 -96.0033 13° North 438 504 39,000  Level Kansas City Center
Mon 09:46:27 AM 36.3725 -95.9678 13° North 439 505 39,000  Level Kansas City Center
Mon 09:47:29 AM 36.4944 -95.9328 13° North 442 509 39,000  Level Kansas City Center
Mon 09:48:31 AM 36.6156 -95.8969 13° North 443 510 39,000  Level Kansas City Center
Mon 09:49:33 AM 36.7356 -95.8614 13° North 441 507 39,000  Level Kansas City Center
Mon 09:50:35 AM 36.8556 -95.8244 14° North 439 505 39,000  Level Kansas City Center
Mon 09:51:37 AM 36.9739 -95.7889 13° North 437 503 39,000  Level Kansas City Center
Mon 09:52:39 AM 37.0917 -95.7542 13° North 433 498 39,000 -581 Level Kansas City Center
Mon 09:53:41 AM 37.2347 -95.7117 13° North 436 502 37,800 -1,024 Descending Kansas City Center
Mon 09:54:42 AM 37.3553 -95.6750 14° North 442 509 36,900 -927 Descending Kansas City Center
Mon 09:55:44 AM 37.4764 -95.6369 14° North 445 512 35,900 -919 Descending Kansas City Center
Mon 09:56:46 AM 37.5975 -95.6003 13° North 446 513 35,000 -435 Descending Kansas City Center
Mon 09:57:48 AM 37.7194 -95.5731 10° North 445 512 35,000 -532 Level Kansas City Center
Mon 09:58:50 AM 37.8428 -95.5586 North 444 511 33,900 -1,016 Descending Kansas City Center
Mon 09:59:52 AM 37.9783 -95.5450 North 449 517 32,900 -1,306 Descending Kansas City Center
Mon 10:00:54 AM 38.0958 -95.5289 North 444 511 31,200 -1,548 Descending Kansas City Center
Mon 10:01:56 AM 38.2317 -95.5072 North 439 505 29,700 -1,887 Descending Kansas City Center
Mon 10:02:58 AM 38.3489 -95.4894 North 444 511 27,300 -2,468 Descending Kansas City Center
Mon 10:04:00 AM 38.4817 -95.4697 North 429 494 24,600 -2,371 Descending Kansas City Center
Mon 10:05:02 AM 38.5906 -95.4531 North 415 478 22,400 -2,274 Descending Kansas City Center
Mon 10:06:04 AM 38.7147 -95.4344 North 401 461 19,900 -2,177 Descending Kansas City Center
Mon 10:07:06 AM 38.8125 -95.4036 14° North 388 447 17,900 -2,177 Descending Kansas City Center
Mon 10:08:08 AM 38.8950 -95.2950 46° Northeast 385 443 15,400 -2,177 Descending Kansas City Center
Mon 10:09:10 AM 38.9606 -95.2011 48° Northeast 374 430 13,400 -1,645 Descending Kansas City Center
Mon 10:10:12 AM 39.0353 -95.0958 48° Northeast 361 415 12,000 -677 Descending Kansas City Center
Mon 10:11:14 AM 39.0933 -95.0128 48° Northeast 329 379 12,000  Level Kansas City Center
Mon 10:12:16 AM 39.1581 -94.9197 48° Northeast 317 365 12,000 -194 Level Kansas City Center
Mon 10:13:18 AM 39.2169 -94.8658 35° Northeast 271 312 11,600 -919 Descending Kansas City Center
Mon 10:14:20 AM 39.2975 -94.8375 15° North 268 308 10,100 -1,306 Descending Kansas City Center
Mon 10:15:22 AM 39.3644 -94.8281 North 255 293 8,900 -1,548 Descending Kansas City Center
Mon 10:16:24 AM 39.4333 -94.8136 North 226 260 6,900 -1,935 Descending Kansas City Center
Mon 10:17:26 AM 39.4867 -94.7850 22° Northeast 233 268 4,900 -1,839 Descending Kansas City Center
Mon 10:18:28 AM 39.4819 -94.7061 94° East 221 254 3,100 -1,113 Descending Kansas City Center
Mon 10:19:30 AM 39.4353 -94.6886 164° South 185 213 2,600 -435 Descending Kansas City Center
Mon 10:20:32 AM 39.3856 -94.7019 192° South 162 186 2,200 -484 Descending Kansas City Center
Mon 10:21:34 AM 39.3511 -94.7122 193° South 137 158 1,600 -581 Descending Kansas City Center
Mon 10:22:36 AM 39.3192 -94.7219 193° South 129 148 1,000 -581 Descending Kansas City Center

Login

Don't have an account? Register now (free) for customized features, flight alerts, and more!